DWU832 EDDH-EDDB
Flight info
| Callsign | DWU832 |
|---|---|
| Flight time | N/A |
| Altitude | 23000 |
| Route | RAMAR6G/33 RAMAR Z998 PITEN L619 VIBIS T209 OGBER OGBER1R |
| Aircraft | B737/M-SDE2E3FGHIRWXY/LB1 |
Departure
| Time | 2026-05-07 22:24 |
|---|---|
| Airport | Hamburg Helmut Schmidt Airport (EDDH) |
Arrival
| Time | N/A |
|---|---|
| Airport | Berlin Brandenburg Airport (EDDB) |
| Time | Latitude | Longitude | Altitude | Speed | Heading |
|---|---|---|---|---|---|
| 2026-05-07 21:56 | 53.62759 | 9.99383 | 36 ft | 0 kts | 243° |
| 2026-05-07 22:06 | 53.62765 | 9.99401 | 36 ft | 2 kts | 243° |
| 2026-05-07 22:06 | 53.62770 | 9.99417 | 35 ft | 0 kts | 243° |
| 2026-05-07 22:14 | 53.62775 | 9.99435 | 35 ft | 2 kts | 243° |
| 2026-05-07 22:14 | 53.62780 | 9.99459 | 35 ft | 2 kts | 268° |
| 2026-05-07 22:15 | 53.62781 | 9.99476 | 35 ft | 0 kts | 353° |
| 2026-05-07 22:15 | 53.62786 | 9.99500 | 35 ft | 0 kts | 351° |
| 2026-05-07 22:15 | 53.62787 | 9.99504 | 35 ft | 0 kts | 336° |
| 2026-05-07 22:19 | 53.62783 | 9.99507 | 35 ft | 1 kts | 335° |
| 2026-05-07 22:19 | 53.62771 | 9.99516 | 35 ft | 2 kts | 337° |
| 2026-05-07 22:19 | 53.62764 | 9.99521 | 36 ft | 0 kts | 322° |
| 2026-05-07 22:21 | 53.62794 | 9.99494 | 35 ft | 15 kts | 331° |
| 2026-05-07 22:21 | 53.62907 | 9.99401 | 33 ft | 15 kts | 333° |
| 2026-05-07 22:21 | 53.62933 | 9.99378 | 32 ft | 2 kts | 331° |
| 2026-05-07 22:21 | 53.62966 | 9.99347 | 31 ft | 4 kts | 330° |
| 2026-05-07 22:22 | 53.62982 | 9.99333 | 31 ft | 0 kts | 332° |
| 2026-05-07 22:22 | 53.63002 | 9.99315 | 31 ft | 10 kts | 333° |
| 2026-05-07 22:23 | 53.63074 | 9.99292 | 32 ft | 11 kts | 7° |
| 2026-05-07 22:23 | 53.63184 | 9.99333 | 31 ft | 21 kts | 16° |
| 2026-05-07 22:23 | 53.63266 | 9.99357 | 31 ft | 9 kts | 10° |
| 2026-05-07 22:23 | 53.63472 | 9.99718 | 34 ft | 97 kts | 49° |
| 2026-05-07 22:24 | 53.64097 | 10.01044 | 335 ft | 177 kts | 53° |
| 2026-05-07 22:24 | 53.64927 | 10.02607 | 1686 ft | 189 kts | 39° |
| 2026-05-07 22:24 | 53.66156 | 10.03166 | 2763 ft | 202 kts | 359° |
| 2026-05-07 22:24 | 53.67445 | 10.02102 | 3675 ft | 223 kts | 317° |
| 2026-05-07 22:25 | 53.68286 | 9.99906 | 4726 ft | 230 kts | 296° |
| 2026-05-07 22:25 | 53.68782 | 9.97323 | 5790 ft | 234 kts | 291° |
| 2026-05-07 22:25 | 53.69706 | 9.95170 | 6808 ft | 232 kts | 326° |
| 2026-05-07 22:25 | 53.71167 | 9.94338 | 7790 ft | 230 kts | 1° |
| 2026-05-07 22:26 | 53.72674 | 9.95031 | 8758 ft | 230 kts | 30° |
| 2026-05-07 22:26 | 53.73917 | 9.96764 | 9680 ft | 237 kts | 50° |
| 2026-05-07 22:26 | 53.74838 | 9.99128 | 10384 ft | 252 kts | 62° |
| 2026-05-07 22:26 | 53.75618 | 10.01813 | 11224 ft | 260 kts | 65° |
| 2026-05-07 22:27 | 53.76391 | 10.04594 | 12100 ft | 266 kts | 64° |
| 2026-05-07 22:27 | 53.77185 | 10.07419 | 12971 ft | 271 kts | 64° |
| 2026-05-07 22:27 | 53.77995 | 10.10258 | 13827 ft | 275 kts | 63° |
| 2026-05-07 22:27 | 53.78834 | 10.13179 | 14673 ft | 280 kts | 63° |
| 2026-05-07 22:28 | 53.79689 | 10.16147 | 15524 ft | 284 kts | 63° |
| 2026-05-07 22:28 | 53.80541 | 10.19108 | 16323 ft | 288 kts | 63° |
| 2026-05-07 22:28 | 53.81427 | 10.22196 | 17111 ft | 292 kts | 63° |
| 2026-05-07 22:28 | 53.82309 | 10.25273 | 17869 ft | 296 kts | 63° |
| 2026-05-07 22:29 | 53.83202 | 10.28396 | 18610 ft | 300 kts | 63° |
| 2026-05-07 22:29 | 53.84043 | 10.31621 | 19350 ft | 304 kts | 69° |
| 2026-05-07 22:29 | 53.84543 | 10.35113 | 20078 ft | 307 kts | 82° |
| 2026-05-07 22:29 | 53.84547 | 10.38745 | 20793 ft | 311 kts | 95° |
| 2026-05-07 22:30 | 53.84140 | 10.42335 | 21470 ft | 314 kts | 103° |
| 2026-05-07 22:30 | 53.83581 | 10.45884 | 22121 ft | 317 kts | 104° |
| 2026-05-07 22:30 | 53.83002 | 10.49456 | 22745 ft | 320 kts | 104° |
| 2026-05-07 22:30 | 53.82427 | 10.53144 | 23005 ft | 331 kts | 103° |
| 2026-05-07 22:31 | 53.81853 | 10.57006 | 22998 ft | 347 kts | 103° |
| 2026-05-07 22:31 | 53.81277 | 10.61023 | 22997 ft | 349 kts | 102° |
| 2026-05-07 22:31 | 53.80695 | 10.64975 | 22999 ft | 349 kts | 104° |
| 2026-05-07 22:31 | 53.79950 | 10.68885 | 22999 ft | 350 kts | 110° |
| 2026-05-07 22:32 | 53.78937 | 10.72637 | 23001 ft | 350 kts | 117° |
| 2026-05-07 22:32 | 53.77743 | 10.76207 | 23002 ft | 351 kts | 120° |
| 2026-05-07 22:32 | 53.76463 | 10.79703 | 23001 ft | 351 kts | 122° |
| 2026-05-07 22:32 | 53.75139 | 10.83205 | 23001 ft | 351 kts | 122° |
| 2026-05-07 22:33 | 53.73824 | 10.86665 | 23001 ft | 350 kts | 122° |
| 2026-05-07 22:33 | 53.72489 | 10.90037 | 23000 ft | 351 kts | 126° |
| 2026-05-07 22:33 | 53.70892 | 10.93159 | 22998 ft | 351 kts | 134° |
| 2026-05-07 22:33 | 53.69034 | 10.95860 | 22998 ft | 352 kts | 142° |
| 2026-05-07 22:34 | 53.67027 | 10.98202 | 22998 ft | 352 kts | 147° |
| 2026-05-07 22:34 | 53.64948 | 11.00374 | 22998 ft | 353 kts | 148° |
| 2026-05-07 22:34 | 53.62838 | 11.02491 | 22997 ft | 353 kts | 149° |
| 2026-05-07 22:34 | 53.60731 | 11.04585 | 23000 ft | 353 kts | 149° |